createdAt,value
2019-01-03T00:01:36.227Z,90.25
2019-01-03T00:04:33.901Z,90.50
2019-01-03T00:07:31.023Z,90.26
2019-01-03T00:10:23.713Z,90.33
2019-01-03T00:13:18.193Z,90.08
2019-01-03T00:16:07.922Z,90.21
2019-01-03T00:19:04.073Z,89.75
2019-01-03T00:21:53.540Z,89.87
2019-01-03T00:24:41.418Z,89.85
2019-01-03T00:27:45.137Z,89.72
2019-01-03T00:30:39.328Z,89.28
2019-01-03T00:33:28.084Z,89.64
2019-01-03T00:36:14.818Z,89.81
2019-01-03T00:39:14.084Z,89.96
2019-01-03T00:42:11.207Z,90.25
2019-01-03T00:45:05.878Z,90.89
2019-01-03T00:48:09.624Z,91.16
2019-01-03T00:51:10.305Z,91.29
2019-01-03T00:53:58.438Z,91.04
2019-01-03T00:57:02.446Z,91.09
2019-01-03T01:00:10.071Z,90.95
2019-01-03T01:02:53.681Z,90.71
2019-01-03T01:05:40.893Z,90.75
2019-01-03T01:08:28.310Z,90.32
2019-01-03T01:11:26.126Z,90.93
2019-01-03T01:14:13.802Z,91.14
2019-01-03T01:17:06.104Z,90.77
2019-01-03T01:19:52.341Z,91.36
2019-01-03T01:22:55.910Z,91.15
2019-01-03T01:25:59.419Z,90.70
2019-01-03T01:28:41.953Z,90.29
2019-01-03T01:31:29.219Z,90.18
2019-01-03T01:34:23.498Z,90.45
2019-01-03T01:37:17.721Z,90.09
2019-01-03T01:40:09.442Z,90.28
2019-01-03T01:42:56.272Z,90.39
2019-01-03T01:45:56.522Z,90.17
2019-01-03T01:48:43.647Z,90.16
2019-01-03T01:51:31.936Z,90.55
2019-01-03T01:54:28.729Z,91.06
2019-01-03T01:57:17.256Z,90.95
2019-01-03T02:00:04.310Z,91.01
2019-01-03T02:03:05.083Z,91.54
2019-01-03T02:05:52.539Z,92.01
2019-01-03T02:08:39.372Z,92.54
2019-01-03T02:11:36.624Z,92.84
2019-01-03T02:14:23.616Z,92.95
2019-01-03T02:17:11.898Z,93.11
2019-01-03T02:19:58.673Z,93.26
2019-01-03T02:22:52.834Z,93.10
2019-01-03T02:25:43.738Z,92.51
2019-01-03T02:28:34.866Z,92.89
2019-01-03T02:31:21.717Z,93.22
2019-01-03T02:34:13.293Z,92.91
2019-01-03T02:37:07.390Z,92.86
2019-01-03T02:39:50.010Z,93.05
2019-01-03T02:42:42.867Z,93.02
2019-01-03T02:45:25.070Z,92.90
2019-01-03T02:48:12.009Z,92.53
2019-01-03T02:51:04.758Z,92.65
2019-01-03T02:54:11.822Z,92.83
2019-01-03T02:56:58.602Z,93.12
2019-01-03T02:59:55.345Z,93.15
2019-01-03T03:02:46.712Z,92.62
2019-01-03T03:05:33.770Z,92.63
2019-01-03T03:08:24.706Z,92.47
2019-01-03T03:11:11.774Z,92.57
2019-01-03T03:13:58.861Z,92.44
2019-01-03T03:17:05.521Z,92.55
2019-01-03T03:19:52.214Z,92.49
2019-01-03T03:22:38.985Z,92.20
2019-01-03T03:25:28.741Z,92.38
2019-01-03T03:28:16.762Z,92.27
2019-01-03T03:31:03.828Z,92.42
2019-01-03T03:33:50.597Z,92.57
2019-01-03T03:36:56.967Z,92.43
2019-01-03T03:39:44.192Z,92.18
2019-01-03T03:42:38.524Z,92.18
2019-01-03T03:45:28.791Z,92.18
2019-01-03T03:48:12.456Z,91.92
2019-01-03T03:51:00.737Z,92.26
2019-01-03T03:54:06.405Z,92.71
2019-01-03T03:57:09.695Z,93.05
2019-01-03T03:59:56.758Z,92.88
2019-01-03T04:02:43.497Z,91.73
2019-01-03T04:05:47.196Z,91.77
2019-01-03T04:08:36.847Z,92.92
2019-01-03T04:11:37.635Z,93.04
2019-01-03T04:14:37.732Z,93.01
2019-01-03T04:17:32.697Z,92.23
2019-01-03T04:20:30.361Z,93.01
2019-01-03T04:23:36.865Z,93.00
2019-01-03T04:26:31.039Z,92.95
2019-01-03T04:29:35.486Z,92.69
2019-01-03T04:32:23.911Z,93.45
2019-01-03T04:35:21.455Z,93.56
2019-01-03T04:38:09.541Z,93.21
2019-01-03T04:41:16.086Z,93.50
2019-01-03T04:44:13.398Z,93.14
2019-01-03T04:47:08.209Z,92.71
2019-01-03T04:49:58.569Z,93.09
2019-01-03T04:52:53.028Z,94.04
2019-01-03T04:55:53.500Z,94.83
2019-01-03T04:58:50.146Z,94.68
2019-01-03T05:02:14.165Z,94.41
2019-01-03T05:05:02.924Z,94.55
2019-01-03T05:07:57.505Z,94.98
2019-01-03T05:10:48.560Z,95.23
2019-01-03T05:13:35.598Z,95.57
2019-01-03T05:16:35.891Z,95.45
2019-01-03T05:19:23.264Z,96.05
2019-01-03T05:22:10.220Z,96.22
2019-01-03T05:24:57.773Z,97.15
2019-01-03T05:27:44.675Z,97.51
2019-01-03T05:30:31.990Z,97.76
2019-01-03T05:33:19.066Z,98.19
2019-01-03T05:36:16.376Z,98.46
2019-01-03T05:39:03.140Z,98.46
2019-01-03T05:41:50.055Z,98.46
2019-01-03T05:44:41.193Z,98.55
2019-01-03T05:47:30.069Z,98.94
2019-01-03T05:50:17.229Z,99.28
2019-01-03T05:53:03.937Z,99.22
2019-01-03T05:56:07.623Z,99.35
2019-01-03T05:58:54.674Z,99.40
2019-01-03T06:01:42.183Z,99.17
2019-01-03T06:04:29.350Z,99.10
2019-01-03T06:07:18.064Z,98.97
2019-01-03T06:10:15.224Z,99.01
2019-01-03T06:12:59.003Z,98.68
2019-01-03T06:16:05.407Z,98.42
2019-01-03T06:18:59.394Z,98.38
2019-01-03T06:21:50.949Z,98.34
2019-01-03T06:24:42.475Z,98.24
2019-01-03T06:27:36.794Z,98.23
2019-01-03T06:30:40.400Z,97.51
2019-01-03T06:33:28.554Z,97.48
2019-01-03T06:36:43.457Z,97.79
2019-01-03T06:39:39.226Z,97.48
2019-01-03T06:42:46.548Z,97.14
2019-01-03T06:45:53.308Z,96.59
2019-01-03T06:49:00.127Z,96.05
2019-01-03T06:51:46.766Z,96.33
2019-01-03T06:54:53.019Z,96.31
2019-01-03T06:57:41.248Z,96.53
2019-01-03T07:00:44.630Z,96.82
2019-01-03T07:03:29.355Z,96.80
2019-01-03T07:06:32.818Z,96.86
2019-01-03T07:09:40.036Z,97.41
2019-01-03T07:12:18.259Z,97.78
2019-01-03T07:15:06.840Z,97.89
2019-01-03T07:17:53.819Z,97.81
2019-01-03T07:20:48.292Z,98.11
2019-01-03T07:23:55.077Z,97.52
2019-01-03T07:26:41.752Z,97.63
2019-01-03T07:29:28.469Z,97.48
2019-01-03T07:32:16.598Z,97.57
2019-01-03T07:35:16.835Z,97.58
2019-01-03T07:38:03.682Z,97.76
2019-01-03T07:40:58.450Z,97.79
2019-01-03T07:43:45.583Z,97.11
2019-01-03T07:46:32.740Z,97.57
2019-01-03T07:49:19.842Z,97.09
2019-01-03T07:52:17.298Z,97.32
2019-01-03T07:55:15.027Z,97.38
2019-01-03T07:58:12.509Z,97.60
2019-01-03T08:00:59.900Z,97.33
2019-01-03T08:03:46.963Z,97.82
2019-01-03T08:06:33.666Z,98.02
2019-01-03T08:09:34.606Z,97.91
2019-01-03T08:12:31.695Z,97.40
2019-01-03T08:15:26.116Z,97.11
2019-01-03T08:18:14.225Z,96.71
2019-01-03T08:21:05.378Z,96.64
2019-01-03T08:23:52.425Z,96.51
2019-01-03T08:26:44.259Z,96.50
2019-01-03T08:29:31.729Z,96.80
2019-01-03T08:32:14.398Z,96.21
2019-01-03T08:35:00.020Z,95.79
2019-01-03T08:37:47.235Z,95.86
2019-01-03T08:40:39.140Z,95.82
2019-01-03T08:43:42.438Z,95.26
2019-01-03T08:46:39.896Z,95.27
2019-01-03T08:49:24.416Z,95.81
2019-01-03T08:52:15.789Z,95.96
2019-01-03T08:55:03.253Z,95.07
2019-01-03T08:57:54.456Z,95.28
2019-01-03T09:00:41.227Z,96.01
2019-01-03T09:03:29.589Z,95.13
2019-01-03T09:06:16.803Z,94.68
2019-01-03T09:09:09.303Z,94.46
2019-01-03T09:11:50.473Z,93.06
2019-01-03T09:14:37.268Z,93.26
2019-01-03T09:17:28.245Z,92.46
2019-01-03T09:20:34.851Z,91.26
2019-01-03T09:23:20.149Z,91.68
2019-01-03T09:26:08.234Z,90.59
2019-01-03T09:28:49.512Z,91.21
2019-01-03T09:31:49.899Z,91.07
2019-01-03T09:34:44.114Z,91.13
2019-01-03T09:37:32.543Z,91.03
2019-01-03T09:40:36.026Z,90.87
2019-01-03T09:43:24.168Z,91.02
2019-01-03T09:45:53.361Z,89.84
2019-01-03T09:48:22.862Z,89.46
2019-01-03T09:50:52.235Z,89.93
2019-01-03T09:53:21.989Z,90.47
2019-01-03T09:55:51.194Z,90.21
2019-01-03T09:58:20.658Z,91.56
2019-01-03T10:00:50.272Z,91.14
2019-01-03T10:03:19.907Z,90.50
2019-01-03T10:05:49.098Z,91.21
2019-01-03T10:08:19.660Z,91.10
2019-01-03T10:10:49.032Z,91.19
2019-01-03T10:13:18.516Z,91.14
2019-01-03T10:15:47.790Z,90.65
2019-01-03T10:18:16.988Z,88.94
2019-01-03T10:20:46.144Z,88.51
2019-01-03T10:23:15.513Z,87.73
2019-01-03T10:25:44.705Z,87.11
2019-01-03T10:28:13.837Z,87.16
2019-01-03T10:30:43.427Z,87.19
2019-01-03T10:33:13.234Z,87.08
2019-01-03T10:35:42.708Z,87.50
2019-01-03T10:38:13.130Z,87.48
2019-01-03T10:40:42.597Z,86.99
2019-01-03T10:43:12.084Z,86.44
2019-01-03T10:45:41.642Z,86.60
2019-01-03T10:48:11.187Z,86.14
2019-01-03T10:50:40.407Z,86.26
2019-01-03T10:53:10.464Z,86.68
2019-01-03T10:55:40.163Z,86.92
2019-01-03T10:58:09.400Z,86.91
2019-01-03T11:00:42.502Z,87.68
2019-01-03T11:03:12.015Z,88.69
2019-01-03T11:05:41.598Z,88.14
2019-01-03T11:08:11.300Z,88.03
2019-01-03T11:10:40.480Z,87.42
2019-01-03T11:13:09.616Z,86.70
2019-01-03T11:15:39.036Z,85.30
2019-01-03T11:18:08.439Z,84.21
2019-01-03T11:20:37.978Z,84.26
2019-01-03T11:23:07.448Z,82.91
2019-01-03T11:25:36.635Z,84.04
2019-01-03T11:28:06.071Z,83.26
2019-01-03T11:30:35.613Z,82.51
2019-01-03T11:33:05.508Z,81.46
2019-01-03T11:35:34.692Z,81.84
2019-01-03T11:38:03.879Z,82.41
2019-01-03T11:40:33.058Z,81.51
2019-01-03T11:43:02.579Z,82.15
2019-01-03T11:45:32.089Z,83.99
2019-01-03T11:48:01.701Z,84.10
2019-01-03T11:50:31.244Z,84.54
2019-01-03T11:53:00.739Z,84.37
2019-01-03T11:55:30.235Z,85.26
2019-01-03T11:57:59.676Z,83.92
2019-01-03T12:00:28.851Z,85.99
2019-01-03T12:02:58.408Z,86.56
2019-01-03T12:05:27.592Z,85.99
2019-01-03T12:07:57.136Z,86.25
2019-01-03T12:10:26.461Z,86.39
2019-01-03T12:12:56.414Z,86.10
2019-01-03T12:15:25.920Z,85.68
2019-01-03T12:17:55.125Z,85.01
2019-01-03T12:20:24.663Z,83.46
2019-01-03T12:22:54.200Z,83.01
2019-01-03T12:25:25.355Z,82.33
2019-01-03T12:27:54.599Z,81.60
2019-01-03T12:30:24.123Z,80.59
2019-01-03T12:32:53.308Z,81.00
2019-01-03T12:35:22.719Z,80.88
2019-01-03T12:37:51.899Z,80.74
2019-01-03T12:40:21.739Z,81.14
2019-01-03T12:42:51.285Z,82.22
2019-01-03T12:45:20.440Z,82.22
2019-01-03T12:47:49.896Z,82.08
2019-01-03T12:50:19.159Z,81.34
2019-01-03T12:52:48.350Z,80.27
2019-01-03T12:55:17.534Z,80.24
2019-01-03T12:57:47.082Z,79.72
2019-01-03T13:00:16.637Z,79.81
2019-01-03T13:02:46.575Z,80.55
2019-01-03T13:05:15.819Z,81.05
2019-01-03T13:07:45.353Z,81.90
2019-01-03T13:10:14.818Z,81.55
2019-01-03T13:12:44.304Z,82.01
2019-01-03T13:15:13.934Z,83.34
2019-01-03T13:17:43.420Z,83.28
2019-01-03T13:20:12.640Z,83.36
2019-01-03T13:22:41.776Z,82.53
2019-01-03T13:25:10.981Z,82.08
2019-01-03T13:27:40.138Z,82.22
2019-01-03T13:30:11.292Z,81.52
2019-01-03T13:32:40.776Z,81.66
2019-01-03T13:35:10.263Z,79.81
2019-01-03T13:37:39.475Z,80.19
2019-01-03T13:40:09.652Z,79.81
2019-01-03T13:42:39.619Z,81.04
2019-01-03T13:45:08.781Z,81.81
2019-01-03T13:47:38.004Z,81.41
2019-01-03T13:50:08.169Z,81.04
2019-01-03T13:52:37.626Z,82.17
2019-01-03T13:55:06.768Z,83.36
2019-01-03T13:57:35.935Z,83.56
2019-01-03T14:00:05.976Z,83.06
2019-01-03T14:02:35.444Z,83.33
2019-01-03T14:05:05.263Z,84.55
2019-01-03T14:07:35.194Z,84.53
2019-01-03T14:10:04.906Z,85.05
2019-01-03T14:12:34.406Z,85.02
2019-01-03T14:15:03.640Z,85.12
2019-01-03T14:17:33.125Z,84.92
2019-01-03T14:20:02.303Z,84.45
2019-01-03T14:22:31.909Z,84.40
2019-01-03T14:25:01.435Z,83.96
2019-01-03T14:27:31.034Z,84.08
2019-01-03T14:30:00.440Z,83.54
2019-01-03T14:32:29.550Z,83.56
2019-01-03T14:34:59.338Z,83.59
2019-01-03T14:37:28.699Z,83.48
2019-01-03T14:39:58.343Z,84.18
2019-01-03T14:42:27.513Z,84.06
2019-01-03T14:44:57.048Z,84.96
2019-01-03T14:47:26.601Z,85.02
2019-01-03T14:49:55.776Z,85.37
2019-01-03T14:52:25.543Z,85.92
2019-01-03T14:54:54.976Z,85.82
2019-01-03T14:57:24.545Z,85.86
2019-01-03T14:59:54.085Z,85.69
2019-01-03T15:02:23.295Z,86.13
2019-01-03T15:04:52.442Z,86.46
2019-01-03T15:07:22.023Z,86.07
2019-01-03T15:09:51.197Z,87.03
2019-01-03T15:12:20.703Z,86.64
2019-01-03T15:14:49.867Z,86.92
2019-01-03T15:17:19.622Z,87.36
2019-01-03T15:19:49.102Z,87.39
2019-01-03T15:22:18.288Z,87.30
2019-01-03T15:24:47.554Z,86.75
2019-01-03T15:27:17.049Z,87.15
2019-01-03T15:29:46.391Z,87.25
2019-01-03T15:32:15.835Z,87.69
2019-01-03T15:34:45.044Z,88.17
2019-01-03T15:37:14.532Z,88.25
2019-01-03T15:39:43.969Z,88.05
2019-01-03T15:42:13.201Z,88.62
2019-01-03T15:44:42.849Z,89.03
2019-01-03T15:47:12.153Z,89.22
2019-01-03T15:49:41.302Z,88.86
2019-01-03T15:52:10.888Z,89.80
2019-01-03T15:54:40.075Z,89.84
2019-01-03T15:57:09.283Z,89.69
2019-01-03T15:59:38.419Z,90.83
2019-01-03T16:02:07.666Z,92.00
2019-01-03T16:04:37.180Z,92.81
2019-01-03T16:07:06.796Z,93.33
2019-01-03T16:09:35.940Z,94.47
2019-01-03T16:12:05.170Z,96.26
2019-01-03T16:14:34.686Z,96.83
2019-01-03T16:17:03.813Z,97.05
2019-01-03T16:19:33.042Z,97.70
2019-01-03T16:22:02.605Z,98.50
2019-01-03T16:24:32.153Z,98.99
2019-01-03T16:27:01.323Z,99.06
2019-01-03T16:29:30.911Z,99.17
2019-01-03T16:32:00.394Z,99.37
2019-01-03T16:34:29.536Z,99.55
2019-01-03T16:36:59.327Z,99.51
2019-01-03T16:39:28.919Z,99.07
2019-01-03T16:41:58.748Z,98.95
2019-01-03T16:44:28.101Z,98.90
2019-01-03T16:46:57.660Z,99.45
2019-01-03T16:49:26.783Z,99.34
2019-01-03T16:51:56.750Z,99.08
2019-01-03T16:54:26.014Z,98.85
2019-01-03T16:56:55.349Z,98.68
2019-01-03T16:59:24.563Z,98.82
2019-01-03T17:01:53.819Z,99.28
2019-01-03T17:04:23.359Z,99.11
2019-01-03T17:06:52.892Z,99.14
2019-01-03T17:09:22.782Z,99.19
2019-01-03T17:11:53.058Z,99.10
2019-01-03T17:14:22.337Z,98.91
2019-01-03T17:16:51.519Z,99.11
2019-01-03T17:19:20.907Z,98.98
2019-01-03T17:21:50.659Z,99.39
2019-01-03T17:24:20.527Z,99.40
2019-01-03T17:26:50.658Z,99.24
2019-01-03T17:29:20.366Z,99.27
2019-01-03T17:31:50.129Z,99.24
2019-01-03T17:34:19.890Z,98.90
2019-01-03T17:36:49.739Z,98.39
2019-01-03T17:39:20.236Z,98.46
2019-01-03T17:41:50.055Z,98.63
2019-01-03T17:44:19.998Z,98.47
2019-01-03T17:46:50.053Z,98.64
2019-01-03T17:49:19.594Z,98.58
2019-01-03T17:51:48.759Z,98.71
2019-01-03T17:54:17.941Z,99.04
2019-01-03T17:56:47.236Z,99.47
2019-01-03T17:59:16.755Z,99.75
2019-01-03T18:01:47.827Z,99.67
2019-01-03T18:04:19.002Z,99.53
2019-01-03T18:06:48.371Z,99.48
2019-01-03T18:09:17.696Z,99.37
2019-01-03T18:11:49.032Z,99.32
2019-01-03T18:14:18.492Z,99.46
2019-01-03T18:16:47.873Z,99.49
2019-01-03T18:19:18.707Z,99.57
2019-01-03T18:21:51.055Z,99.56
2019-01-03T18:24:20.869Z,99.46
2019-01-03T18:26:51.203Z,99.47
2019-01-03T18:29:20.487Z,99.72
2019-01-03T18:31:53.459Z,99.72
2019-01-03T18:34:23.028Z,99.67
2019-01-03T18:36:52.808Z,99.70
2019-01-03T18:39:22.585Z,99.67
2019-01-03T18:41:52.035Z,99.74
2019-01-03T18:44:21.647Z,99.76
2019-01-03T18:46:51.708Z,99.74
2019-01-03T18:49:21.656Z,99.91
2019-01-03T18:51:51.853Z,99.93
2019-01-03T18:54:21.403Z,99.91
2019-01-03T18:56:50.817Z,99.91
2019-01-03T18:59:20.272Z,99.96
2019-01-03T19:01:49.734Z,100.00
2019-01-03T19:04:18.918Z,100.00
2019-01-03T19:06:48.111Z,100.00
2019-01-03T19:09:17.324Z,100.00
2019-01-03T19:11:46.783Z,100.00
2019-01-03T19:14:16.355Z,100.00
2019-01-03T19:16:46.244Z,100.00
2019-01-03T19:19:15.499Z,100.00
2019-01-03T19:21:46.386Z,99.87
2019-01-03T19:24:15.581Z,99.80
2019-01-03T19:26:45.117Z,99.79
2019-01-03T19:29:14.324Z,99.91
2019-01-03T19:31:44.072Z,99.96
2019-01-03T19:34:13.271Z,100.00
2019-01-03T19:36:42.727Z,100.00
2019-01-03T19:39:11.903Z,100.00
2019-01-03T19:41:41.403Z,100.00
2019-01-03T19:44:10.915Z,100.00
2019-01-03T19:46:41.925Z,100.00
2019-01-03T19:49:11.248Z,100.00
2019-01-03T19:51:40.448Z,100.00
2019-01-03T19:54:10.803Z,100.00
2019-01-03T19:56:40.193Z,100.00
2019-01-03T19:59:09.693Z,100.00
2019-01-03T20:01:41.220Z,100.00
2019-01-03T20:04:10.872Z,100.00
2019-01-03T20:06:40.289Z,100.00
2019-01-03T20:09:09.833Z,100.00
2019-01-03T20:11:39.480Z,100.00
2019-01-03T20:14:08.727Z,100.00
2019-01-03T20:16:38.178Z,100.00
2019-01-03T20:19:08.329Z,100.00
2019-01-03T20:21:38.328Z,100.00
2019-01-03T20:24:07.944Z,100.00
2019-01-03T20:26:37.754Z,100.00
2019-01-03T20:29:07.182Z,100.00
2019-01-03T20:31:36.343Z,100.00
2019-01-03T20:34:05.736Z,100.00
2019-01-03T20:36:35.017Z,100.00
2019-01-03T20:39:05.571Z,100.00
2019-01-03T20:41:35.280Z,100.00
2019-01-03T20:44:04.445Z,100.00
2019-01-03T20:46:33.771Z,99.93
2019-01-03T20:49:03.054Z,99.67
2019-01-03T20:51:32.963Z,99.83
2019-01-03T20:54:02.388Z,99.96
2019-01-03T20:56:31.606Z,99.92
2019-01-03T20:59:02.114Z,99.92
2019-01-03T21:01:32.063Z,99.57
2019-01-03T21:04:01.204Z,99.57
2019-01-03T21:06:30.772Z,100.00
2019-01-03T21:09:00.179Z,100.00
2019-01-03T21:11:29.709Z,100.00
2019-01-03T21:13:58.902Z,100.00
2019-01-03T21:16:28.047Z,100.00
2019-01-03T21:18:57.252Z,100.00
2019-01-03T21:21:26.971Z,100.00
2019-01-03T21:23:56.674Z,100.00
2019-01-03T21:26:26.279Z,100.00
2019-01-03T21:28:55.777Z,100.00
2019-01-03T21:31:25.314Z,100.00
2019-01-03T21:33:54.830Z,99.86
2019-01-03T21:36:24.735Z,99.63
2019-01-03T21:38:53.887Z,99.51
2019-01-03T21:41:23.728Z,99.58
2019-01-03T21:43:53.197Z,99.46
2019-01-03T21:46:22.365Z,99.30
2019-01-03T21:48:53.195Z,99.02
2019-01-03T21:51:22.447Z,99.15
2019-01-03T21:53:52.306Z,99.30
2019-01-03T21:56:21.458Z,99.10
2019-01-03T21:58:50.672Z,99.08
2019-01-03T22:01:19.840Z,98.82
2019-01-03T22:03:49.057Z,98.80
2019-01-03T22:06:18.574Z,98.80
2019-01-03T22:08:47.743Z,98.67
2019-01-03T22:11:17.211Z,98.73
2019-01-03T22:13:46.501Z,98.73
2019-01-03T22:16:15.714Z,98.47
2019-01-03T22:18:45.081Z,98.22
2019-01-03T22:21:14.226Z,98.11
2019-01-03T22:23:43.722Z,98.06
2019-01-03T22:26:13.262Z,98.01
2019-01-03T22:28:42.476Z,97.99
2019-01-03T22:31:12.242Z,98.16
2019-01-03T22:33:41.396Z,98.13
2019-01-03T22:36:12.040Z,97.75
2019-01-03T22:38:41.567Z,97.69
2019-01-03T22:41:10.720Z,97.51
2019-01-03T22:43:40.409Z,97.46
2019-01-03T22:46:09.564Z,97.74
2019-01-03T22:48:38.753Z,97.61
2019-01-03T22:51:09.751Z,97.66
2019-01-03T22:53:39.250Z,97.51
2019-01-03T22:56:08.407Z,97.50
2019-01-03T22:58:37.841Z,97.45
2019-01-03T23:01:08.154Z,97.38
2019-01-03T23:03:37.305Z,97.33
2019-01-03T23:06:06.660Z,97.24
2019-01-03T23:08:36.198Z,97.14
2019-01-03T23:11:05.702Z,97.29
2019-01-03T23:13:35.180Z,97.32
2019-01-03T23:16:04.318Z,96.97
2019-01-03T23:18:34.225Z,96.94
2019-01-03T23:21:03.423Z,96.96
2019-01-03T23:23:32.760Z,97.13
2019-01-03T23:26:07.126Z,97.07
2019-01-03T23:28:36.491Z,97.08
2019-01-03T23:31:05.968Z,97.31
2019-01-03T23:33:35.245Z,97.36
2019-01-03T23:36:04.741Z,97.20
2019-01-03T23:38:34.227Z,97.57
2019-01-03T23:41:04.017Z,97.80
2019-01-03T23:43:33.857Z,97.67
2019-01-03T23:46:03.067Z,97.63
2019-01-03T23:48:34.139Z,97.77
2019-01-03T23:51:03.410Z,97.87
2019-01-03T23:53:33.321Z,97.97
2019-01-03T23:56:02.829Z,98.00
2019-01-03T23:58:32.004Z,98.00
